This is the latest recevied weather packets stored in our database for station/object KD7JB. If no packets are shown the sender has not sent any weather packets the latest 10 day(s).
| Time | Temp. | Humidity | Pressure | Rain* | Wind** | Luminosity | Snow |
|---|---|---|---|---|---|---|---|
| 1777266337 | 6.11° C | 48% | 1170.5 hPa | 0 mm | - | 0 W/m² | - |
| 1777266032 | 5.56° C | 49% | 1170.5 hPa | 0 mm | - | 0 W/m² | - |
| 1777265727 | 5.56° C | 48% | 1170.7 hPa | 0 mm | - | 0 W/m² | - |
| 1777265423 | 6.11° C | 48% | 1170.5 hPa | 0 mm | - | 0 W/m² | - |
| 1777265119 | 7.22° C | 44% | 1170.4 hPa | 0 mm | - | 0 W/m² | - |
| 1777264816 | 6.67° C | 45% | 1170.7 hPa | 0 mm | - | 0 W/m² | - |
| 1777264514 | 6.67° C | 45% | 1170.4 hPa | 0 mm | - | 0 W/m² | - |
| 1777264209 | 6.67° C | 45% | 1170.4 hPa | 0 mm | - | 0 W/m² | - |
| 1777263902 | 7.22° C | 45% | 1170.5 hPa | 0 mm | - | 0 W/m² | - |
| 1777263599 | 7.22° C | 45% | 1170.3 hPa | 0 mm | - | 0 W/m² | - |
| 1777263296 | 7.78° C | 44% | 1170.4 hPa | 0 mm | - | 0 W/m² | - |
| 1777262992 | 7.78° C | 43% | 1170.4 hPa | 0 mm | - | 0 W/m² | - |
| 1777262689 | 7.78° C | 42% | 1170.5 hPa | 0 mm | - | 0 W/m² | - |
| 1777262386 | 7.22° C | 43% | 1170.7 hPa | 0 mm | - | 0 W/m² | - |
| 1777262083 | 7.22° C | 45% | 1170.4 hPa | 0 mm | - | 0 W/m² | - |
| 1777261780 | 7.22° C | 46% | 1170.3 hPa | 0 mm | - | 0 W/m² | - |
| 1777261476 | 7.22° C | 46% | 1170.2 hPa | 0 mm | - | 0 W/m² | - |
| 1777261173 | 7.22° C | 46% | 1170.2 hPa | 0 mm | - | 0 W/m² | - |
| 1777260873 | 7.22° C | 46% | 1170.3 hPa | 0 mm | - | 0 W/m² | - |
| 1777260569 | 7.22° C | 46% | 1170.2 hPa | 0 mm | - | 0 W/m² | - |
| 1777260265 | 7.22° C | 47% | 1170.1 hPa | 0 mm | - | 0 W/m² | - |
| 1777259960 | 7.22° C | 45% | 1170.1 hPa | 0 mm | - | 0 W/m² | - |
| 1777259657 | 7.22° C | 44% | 1170 hPa | 0 mm | - | 1 W/m² | - |
| 1777259355 | 7.22° C | 46% | 1170 hPa | 0 mm | - | 2 W/m² | - |
| 1777258750 | 7.22° C | 45% | 1169.9 hPa | 0 mm | - | 4 W/m² | - |
* Rain latest hour (hover to see other rain measurements)
** Current wind speed in m/s (hover to see current wind gust speed)